sensor_id;sensor_type;location;lat;lon;timestamp;temperature;humidity
15765;DHT22;7983;50.744;7.086;2022-07-06T00:00:04;18.70;78.40
15765;DHT22;7983;50.744;7.086;2022-07-06T00:02:30;18.70;78.00
15765;DHT22;7983;50.744;7.086;2022-07-06T00:04:56;18.60;77.60
15765;DHT22;7983;50.744;7.086;2022-07-06T00:07:23;18.60;78.50
15765;DHT22;7983;50.744;7.086;2022-07-06T00:09:49;18.50;78.90
15765;DHT22;7983;50.744;7.086;2022-07-06T00:12:17;18.50;78.90
15765;DHT22;7983;50.744;7.086;2022-07-06T00:14:47;18.40;79.10
15765;DHT22;7983;50.744;7.086;2022-07-06T00:17:13;18.40;79.20
15765;DHT22;7983;50.744;7.086;2022-07-06T00:19:39;18.30;79.90
15765;DHT22;7983;50.744;7.086;2022-07-06T00:22:07;18.20;79.70
15765;DHT22;7983;50.744;7.086;2022-07-06T00:24:34;18.20;81.20
15765;DHT22;7983;50.744;7.086;2022-07-06T00:27:00;18.10;80.70
15765;DHT22;7983;50.744;7.086;2022-07-06T00:29:28;18.10;80.40
15765;DHT22;7983;50.744;7.086;2022-07-06T00:31:55;18.00;80.90
15765;DHT22;7983;50.744;7.086;2022-07-06T00:34:23;18.00;80.40
15765;DHT22;7983;50.744;7.086;2022-07-06T00:36:49;17.90;80.60
15765;DHT22;7983;50.744;7.086;2022-07-06T00:39:14;17.90;80.40
15765;DHT22;7983;50.744;7.086;2022-07-06T00:41:44;17.80;80.00
15765;DHT22;7983;50.744;7.086;2022-07-06T00:44:10;17.80;80.20
15765;DHT22;7983;50.744;7.086;2022-07-06T00:46:35;17.70;80.50
15765;DHT22;7983;50.744;7.086;2022-07-06T00:49:01;17.70;80.70
15765;DHT22;7983;50.744;7.086;2022-07-06T00:51:32;17.60;80.60
15765;DHT22;7983;50.744;7.086;2022-07-06T00:54:04;17.60;81.70
15765;DHT22;7983;50.744;7.086;2022-07-06T00:56:31;17.50;81.20
15765;DHT22;7983;50.744;7.086;2022-07-06T00:58:58;17.50;81.50
15765;DHT22;7983;50.744;7.086;2022-07-06T01:01:24;17.40;80.80
15765;DHT22;7983;50.744;7.086;2022-07-06T01:03:49;17.40;80.90
15765;DHT22;7983;50.744;7.086;2022-07-06T01:06:15;17.30;80.70
15765;DHT22;7983;50.744;7.086;2022-07-06T01:08:43;17.30;80.40
15765;DHT22;7983;50.744;7.086;2022-07-06T01:11:09;17.20;80.70
15765;DHT22;7983;50.744;7.086;2022-07-06T01:13:35;17.20;81.10
15765;DHT22;7983;50.744;7.086;2022-07-06T01:16:01;17.10;80.80
15765;DHT22;7983;50.744;7.086;2022-07-06T01:18:27;17.10;80.80
15765;DHT22;7983;50.744;7.086;2022-07-06T01:21:14;17.10;81.50
15765;DHT22;7983;50.744;7.086;2022-07-06T01:23:45;17.00;82.90
15765;DHT22;7983;50.744;7.086;2022-07-06T01:26:16;17.00;82.30
15765;DHT22;7983;50.744;7.086;2022-07-06T01:28:47;16.90;82.40
15765;DHT22;7983;50.744;7.086;2022-07-06T01:31:15;16.90;83.20
15765;DHT22;7983;50.744;7.086;2022-07-06T01:33:44;16.80;83.10
15765;DHT22;7983;50.744;7.086;2022-07-06T01:36:12;16.80;83.40
15765;DHT22;7983;50.744;7.086;2022-07-06T01:38:51;16.70;83.60
15765;DHT22;7983;50.744;7.086;2022-07-06T01:41:20;16.70;84.50
15765;DHT22;7983;50.744;7.086;2022-07-06T01:43:48;16.60;84.70
15765;DHT22;7983;50.744;7.086;2022-07-06T01:46:15;16.60;84.70
15765;DHT22;7983;50.744;7.086;2022-07-06T01:48:44;16.50;85.00
15765;DHT22;7983;50.744;7.086;2022-07-06T01:51:10;16.50;85.40
15765;DHT22;7983;50.744;7.086;2022-07-06T01:53:38;16.50;86.00
15765;DHT22;7983;50.744;7.086;2022-07-06T01:56:04;16.40;85.80
15765;DHT22;7983;50.744;7.086;2022-07-06T01:58:30;16.40;85.80
15765;DHT22;7983;50.744;7.086;2022-07-06T02:00:57;16.30;87.20
15765;DHT22;7983;50.744;7.086;2022-07-06T02:03:23;16.30;87.30
15765;DHT22;7983;50.744;7.086;2022-07-06T02:05:51;16.30;86.90
15765;DHT22;7983;50.744;7.086;2022-07-06T02:08:19;16.20;87.20
15765;DHT22;7983;50.744;7.086;2022-07-06T02:10:45;16.20;87.40
15765;DHT22;7983;50.744;7.086;2022-07-06T02:13:10;16.10;88.30
15765;DHT22;7983;50.744;7.086;2022-07-06T02:15:36;16.10;88.20
15765;DHT22;7983;50.744;7.086;2022-07-06T02:18:02;16.10;87.90
15765;DHT22;7983;50.744;7.086;2022-07-06T02:20:30;16.10;89.30
15765;DHT22;7983;50.744;7.086;2022-07-06T02:22:58;16.10;89.60
15765;DHT22;7983;50.744;7.086;2022-07-06T02:25:23;16.00;90.00
15765;DHT22;7983;50.744;7.086;2022-07-06T02:27:49;16.00;88.80
15765;DHT22;7983;50.744;7.086;2022-07-06T02:30:17;16.00;88.90
15765;DHT22;7983;50.744;7.086;2022-07-06T02:32:43;16.00;89.70
15765;DHT22;7983;50.744;7.086;2022-07-06T02:35:09;16.00;89.00
15765;DHT22;7983;50.744;7.086;2022-07-06T02:37:35;16.00;89.10
15765;DHT22;7983;50.744;7.086;2022-07-06T02:40:03;16.00;89.70
15765;DHT22;7983;50.744;7.086;2022-07-06T02:42:31;16.00;89.80
15765;DHT22;7983;50.744;7.086;2022-07-06T02:44:59;16.00;90.00
15765;DHT22;7983;50.744;7.086;2022-07-06T02:47:27;15.90;90.30
15765;DHT22;7983;50.744;7.086;2022-07-06T02:49:53;15.90;90.00
15765;DHT22;7983;50.744;7.086;2022-07-06T02:52:19;15.90;90.40
15765;DHT22;7983;50.744;7.086;2022-07-06T02:54:46;15.90;90.70
15765;DHT22;7983;50.744;7.086;2022-07-06T02:57:11;15.90;90.30
15765;DHT22;7983;50.744;7.086;2022-07-06T02:59:39;15.80;90.20
15765;DHT22;7983;50.744;7.086;2022-07-06T03:02:05;15.80;90.30
15765;DHT22;7983;50.744;7.086;2022-07-06T03:04:36;15.80;90.60
15765;DHT22;7983;50.744;7.086;2022-07-06T03:07:01;15.80;90.60
15765;DHT22;7983;50.744;7.086;2022-07-06T03:09:29;15.80;90.60
15765;DHT22;7983;50.744;7.086;2022-07-06T03:11:55;15.70;90.70
15765;DHT22;7983;50.744;7.086;2022-07-06T03:14:24;15.70;91.00
15765;DHT22;7983;50.744;7.086;2022-07-06T03:16:50;15.60;90.60
15765;DHT22;7983;50.744;7.086;2022-07-06T03:19:19;15.60;90.70
15765;DHT22;7983;50.744;7.086;2022-07-06T03:21:47;15.50;90.60
15765;DHT22;7983;50.744;7.086;2022-07-06T03:24:15;15.40;91.20
15765;DHT22;7983;50.744;7.086;2022-07-06T03:26:43;15.40;91.30
15765;DHT22;7983;50.744;7.086;2022-07-06T03:29:11;15.40;91.80
15765;DHT22;7983;50.744;7.086;2022-07-06T03:31:39;15.30;91.60
15765;DHT22;7983;50.744;7.086;2022-07-06T03:34:09;15.20;91.70
15765;DHT22;7983;50.744;7.086;2022-07-06T03:36:35;15.20;92.10
15765;DHT22;7983;50.744;7.086;2022-07-06T03:39:00;15.20;92.10
15765;DHT22;7983;50.744;7.086;2022-07-06T03:41:26;15.10;92.20
15765;DHT22;7983;50.744;7.086;2022-07-06T03:43:52;15.10;92.30
15765;DHT22;7983;50.744;7.086;2022-07-06T03:46:17;15.00;92.40
15765;DHT22;7983;50.744;7.086;2022-07-06T03:48:43;15.00;92.40
15765;DHT22;7983;50.744;7.086;2022-07-06T03:51:09;15.00;92.50
15765;DHT22;7983;50.744;7.086;2022-07-06T03:53:37;15.00;92.80
15765;DHT22;7983;50.744;7.086;2022-07-06T03:56:02;15.00;92.60
15765;DHT22;7983;50.744;7.086;2022-07-06T03:58:46;15.00;92.50
15765;DHT22;7983;50.744;7.086;2022-07-06T04:01:14;15.00;92.40
15765;DHT22;7983;50.744;7.086;2022-07-06T04:03:40;15.00;92.50
15765;DHT22;7983;50.744;7.086;2022-07-06T04:06:06;15.00;92.50
15765;DHT22;7983;50.744;7.086;2022-07-06T04:08:34;15.10;92.50
15765;DHT22;7983;50.744;7.086;2022-07-06T04:10:59;15.10;92.70
15765;DHT22;7983;50.744;7.086;2022-07-06T04:13:27;15.10;92.70
15765;DHT22;7983;50.744;7.086;2022-07-06T04:15:55;15.20;92.60
15765;DHT22;7983;50.744;7.086;2022-07-06T04:18:21;15.20;92.80
15765;DHT22;7983;50.744;7.086;2022-07-06T04:20:49;15.20;92.60
15765;DHT22;7983;50.744;7.086;2022-07-06T04:23:15;15.20;92.70
15765;DHT22;7983;50.744;7.086;2022-07-06T04:25:41;15.20;92.60
15765;DHT22;7983;50.744;7.086;2022-07-06T04:28:08;15.20;92.60
15765;DHT22;7983;50.744;7.086;2022-07-06T04:30:34;15.30;92.60
15765;DHT22;7983;50.744;7.086;2022-07-06T04:33:00;15.30;92.70
15765;DHT22;7983;50.744;7.086;2022-07-06T04:35:26;15.30;92.60
15765;DHT22;7983;50.744;7.086;2022-07-06T04:37:52;15.30;92.60
15765;DHT22;7983;50.744;7.086;2022-07-06T04:40:20;15.30;92.70
15765;DHT22;7983;50.744;7.086;2022-07-06T04:42:48;15.30;92.80
15765;DHT22;7983;50.744;7.086;2022-07-06T04:45:14;15.30;92.80
15765;DHT22;7983;50.744;7.086;2022-07-06T04:47:39;15.30;92.80
15765;DHT22;7983;50.744;7.086;2022-07-06T04:50:06;15.40;92.90
15765;DHT22;7983;50.744;7.086;2022-07-06T04:52:31;15.40;93.00
15765;DHT22;7983;50.744;7.086;2022-07-06T04:54:57;15.40;93.10
15765;DHT22;7983;50.744;7.086;2022-07-06T04:57:23;15.40;93.20
15765;DHT22;7983;50.744;7.086;2022-07-06T04:59:51;15.40;93.30
15765;DHT22;7983;50.744;7.086;2022-07-06T05:02:17;15.50;93.60
15765;DHT22;7983;50.744;7.086;2022-07-06T05:04:43;15.60;94.00
15765;DHT22;7983;50.744;7.086;2022-07-06T05:07:09;15.60;93.80
15765;DHT22;7983;50.744;7.086;2022-07-06T05:09:34;15.60;93.90
15765;DHT22;7983;50.744;7.086;2022-07-06T05:12:02;15.70;94.40
15765;DHT22;7983;50.744;7.086;2022-07-06T05:14:30;15.70;94.20
15765;DHT22;7983;50.744;7.086;2022-07-06T05:16:56;15.80;95.00
15765;DHT22;7983;50.744;7.086;2022-07-06T05:19:21;15.80;94.90
15765;DHT22;7983;50.744;7.086;2022-07-06T05:21:47;15.90;94.90
15765;DHT22;7983;50.744;7.086;2022-07-06T05:24:13;15.90;95.10
15765;DHT22;7983;50.744;7.086;2022-07-06T05:26:42;16.00;95.10
15765;DHT22;7983;50.744;7.086;2022-07-06T05:29:07;16.00;95.00
15765;DHT22;7983;50.744;7.086;2022-07-06T05:31:33;16.00;94.80
15765;DHT22;7983;50.744;7.086;2022-07-06T05:33:58;16.00;95.30
15765;DHT22;7983;50.744;7.086;2022-07-06T05:36:26;16.00;95.20
15765;DHT22;7983;50.744;7.086;2022-07-06T05:38:52;16.10;95.00
15765;DHT22;7983;50.744;7.086;2022-07-06T05:41:17;16.10;95.20
15765;DHT22;7983;50.744;7.086;2022-07-06T05:43:43;16.10;95.20
15765;DHT22;7983;50.744;7.086;2022-07-06T05:46:09;16.10;95.30
15765;DHT22;7983;50.744;7.086;2022-07-06T05:48:34;16.10;95.00
15765;DHT22;7983;50.744;7.086;2022-07-06T05:51:19;16.20;95.50
15765;DHT22;7983;50.744;7.086;2022-07-06T05:53:44;16.20;95.40
15765;DHT22;7983;50.744;7.086;2022-07-06T05:56:15;16.20;95.40
15765;DHT22;7983;50.744;7.086;2022-07-06T05:58:41;16.20;95.60
15765;DHT22;7983;50.744;7.086;2022-07-06T06:01:07;16.20;95.50
15765;DHT22;7983;50.744;7.086;2022-07-06T06:03:35;16.30;95.60
15765;DHT22;7983;50.744;7.086;2022-07-06T06:06:03;16.30;95.70
15765;DHT22;7983;50.744;7.086;2022-07-06T06:08:29;16.30;95.80
15765;DHT22;7983;50.744;7.086;2022-07-06T06:10:54;16.30;96.00
15765;DHT22;7983;50.744;7.086;2022-07-06T06:13:22;16.40;95.90
15765;DHT22;7983;50.744;7.086;2022-07-06T06:15:48;16.40;96.30
15765;DHT22;7983;50.744;7.086;2022-07-06T06:18:16;16.40;96.10
15765;DHT22;7983;50.744;7.086;2022-07-06T06:20:44;16.50;96.60
15765;DHT22;7983;50.744;7.086;2022-07-06T06:23:10;16.50;96.30
15765;DHT22;7983;50.744;7.086;2022-07-06T06:25:39;16.60;96.60
15765;DHT22;7983;50.744;7.086;2022-07-06T06:28:09;16.60;96.70
15765;DHT22;7983;50.744;7.086;2022-07-06T06:30:36;16.60;96.80
15765;DHT22;7983;50.744;7.086;2022-07-06T06:33:10;16.70;97.10
15765;DHT22;7983;50.744;7.086;2022-07-06T06:35:37;16.70;96.90
15765;DHT22;7983;50.744;7.086;2022-07-06T06:38:05;16.70;96.50
15765;DHT22;7983;50.744;7.086;2022-07-06T06:40:30;16.70;96.60
15765;DHT22;7983;50.744;7.086;2022-07-06T06:42:56;16.80;96.80
15765;DHT22;7983;50.744;7.086;2022-07-06T06:45:27;16.80;96.90
15765;DHT22;7983;50.744;7.086;2022-07-06T06:47:53;16.80;96.90
15765;DHT22;7983;50.744;7.086;2022-07-06T06:50:19;16.80;96.80
15765;DHT22;7983;50.744;7.086;2022-07-06T06:52:45;16.90;97.40
15765;DHT22;7983;50.744;7.086;2022-07-06T06:55:13;16.90;97.10
15765;DHT22;7983;50.744;7.086;2022-07-06T06:57:39;17.00;97.70
15765;DHT22;7983;50.744;7.086;2022-07-06T07:00:05;17.10;97.70
15765;DHT22;7983;50.744;7.086;2022-07-06T07:02:31;17.10;97.70
15765;DHT22;7983;50.744;7.086;2022-07-06T07:04:59;17.20;97.60
15765;DHT22;7983;50.744;7.086;2022-07-06T07:07:24;17.20;97.80
15765;DHT22;7983;50.744;7.086;2022-07-06T07:09:55;17.30;97.60
15765;DHT22;7983;50.744;7.086;2022-07-06T07:12:23;17.40;97.60
15765;DHT22;7983;50.744;7.086;2022-07-06T07:14:49;17.40;97.50
15765;DHT22;7983;50.744;7.086;2022-07-06T07:17:14;17.50;97.60
15765;DHT22;7983;50.744;7.086;2022-07-06T07:19:43;17.60;97.60
15765;DHT22;7983;50.744;7.086;2022-07-06T07:22:08;17.70;97.60
15765;DHT22;7983;50.744;7.086;2022-07-06T07:24:34;17.80;97.40
15765;DHT22;7983;50.744;7.086;2022-07-06T07:27:00;17.80;97.10
15765;DHT22;7983;50.744;7.086;2022-07-06T07:29:28;17.90;97.00
15765;DHT22;7983;50.744;7.086;2022-07-06T07:31:57;17.90;96.90
15765;DHT22;7983;50.744;7.086;2022-07-06T07:34:22;17.90;96.80
15765;DHT22;7983;50.744;7.086;2022-07-06T07:36:48;18.00;96.70
15765;DHT22;7983;50.744;7.086;2022-07-06T07:39:16;18.00;96.30
15765;DHT22;7983;50.744;7.086;2022-07-06T07:41:42;18.10;96.20
15765;DHT22;7983;50.744;7.086;2022-07-06T07:44:10;18.10;96.20
15765;DHT22;7983;50.744;7.086;2022-07-06T07:46:36;18.20;96.10
15765;DHT22;7983;50.744;7.086;2022-07-06T07:49:04;18.20;96.10
15765;DHT22;7983;50.744;7.086;2022-07-06T07:51:32;18.30;95.70
15765;DHT22;7983;50.744;7.086;2022-07-06T07:53:58;18.30;95.50
15765;DHT22;7983;50.744;7.086;2022-07-06T07:56:26;18.40;95.70
15765;DHT22;7983;50.744;7.086;2022-07-06T07:58:52;18.50;95.70
15765;DHT22;7983;50.744;7.086;2022-07-06T08:01:17;18.60;95.60
15765;DHT22;7983;50.744;7.086;2022-07-06T08:03:43;18.70;95.50
15765;DHT22;7983;50.744;7.086;2022-07-06T08:06:09;18.80;95.40
15765;DHT22;7983;50.744;7.086;2022-07-06T08:08:34;18.80;95.30
15765;DHT22;7983;50.744;7.086;2022-07-06T08:11:00;18.90;95.30
15765;DHT22;7983;50.744;7.086;2022-07-06T08:13:26;18.90;94.90
15765;DHT22;7983;50.744;7.086;2022-07-06T08:15:51;19.00;94.80
15765;DHT22;7983;50.744;7.086;2022-07-06T08:18:17;19.00;94.80
15765;DHT22;7983;50.744;7.086;2022-07-06T08:20:43;19.00;94.40
15765;DHT22;7983;50.744;7.086;2022-07-06T08:23:11;19.10;94.50
15765;DHT22;7983;50.744;7.086;2022-07-06T08:25:36;19.10;94.40
15765;DHT22;7983;50.744;7.086;2022-07-06T08:28:02;19.10;94.50
15765;DHT22;7983;50.744;7.086;2022-07-06T08:30:30;19.10;94.50
15765;DHT22;7983;50.744;7.086;2022-07-06T08:33:00;19.10;93.90
15765;DHT22;7983;50.744;7.086;2022-07-06T08:35:26;19.20;93.60
15765;DHT22;7983;50.744;7.086;2022-07-06T08:37:53;19.10;93.30
15765;DHT22;7983;50.744;7.086;2022-07-06T08:40:21;19.20;93.40
15765;DHT22;7983;50.744;7.086;2022-07-06T08:42:53;19.20;93.50
15765;DHT22;7983;50.744;7.086;2022-07-06T08:45:22;19.20;93.50
15765;DHT22;7983;50.744;7.086;2022-07-06T08:47:50;19.20;93.70
15765;DHT22;7983;50.744;7.086;2022-07-06T08:50:15;19.30;93.80
15765;DHT22;7983;50.744;7.086;2022-07-06T08:52:41;19.40;93.80
15765;DHT22;7983;50.744;7.086;2022-07-06T08:55:14;19.50;93.90
15765;DHT22;7983;50.744;7.086;2022-07-06T08:57:39;19.70;93.50
15765;DHT22;7983;50.744;7.086;2022-07-06T09:00:09;19.80;93.90
15765;DHT22;7983;50.744;7.086;2022-07-06T09:02:36;20.00;93.80
15765;DHT22;7983;50.744;7.086;2022-07-06T09:05:03;20.10;93.60
15765;DHT22;7983;50.744;7.086;2022-07-06T09:07:30;20.20;93.40
15765;DHT22;7983;50.744;7.086;2022-07-06T09:09:56;20.20;93.00
15765;DHT22;7983;50.744;7.086;2022-07-06T09:12:27;20.20;92.30
15765;DHT22;7983;50.744;7.086;2022-07-06T09:14:56;20.20;92.20
15765;DHT22;7983;50.744;7.086;2022-07-06T09:17:29;20.20;92.00
15765;DHT22;7983;50.744;7.086;2022-07-06T09:19:57;20.10;92.00
15765;DHT22;7983;50.744;7.086;2022-07-06T09:22:32;20.10;91.90
15765;DHT22;7983;50.744;7.086;2022-07-06T09:27:46;20.20;91.80
15765;DHT22;7983;50.744;7.086;2022-07-06T09:30:13;20.20;92.10
15765;DHT22;7983;50.744;7.086;2022-07-06T09:35:09;20.20;92.00
15765;DHT22;7983;50.744;7.086;2022-07-06T09:37:44;20.30;92.00
15765;DHT22;7983;50.744;7.086;2022-07-06T09:40:17;20.30;91.90
15765;DHT22;7983;50.744;7.086;2022-07-06T09:42:46;20.40;91.20
15765;DHT22;7983;50.744;7.086;2022-07-06T09:45:12;20.40;91.30
15765;DHT22;7983;50.744;7.086;2022-07-06T09:47:37;20.50;91.40
15765;DHT22;7983;50.744;7.086;2022-07-06T09:50:06;20.50;91.40
15765;DHT22;7983;50.744;7.086;2022-07-06T09:52:35;20.50;90.90
15765;DHT22;7983;50.744;7.086;2022-07-06T09:55:06;20.50;90.90
15765;DHT22;7983;50.744;7.086;2022-07-06T09:57:39;20.60;90.90
15765;DHT22;7983;50.744;7.086;2022-07-06T10:00:08;20.60;91.00
15765;DHT22;7983;50.744;7.086;2022-07-06T10:02:37;20.60;90.80
15765;DHT22;7983;50.744;7.086;2022-07-06T10:05:05;20.70;91.10
15765;DHT22;7983;50.744;7.086;2022-07-06T10:07:33;20.80;90.70
15765;DHT22;7983;50.744;7.086;2022-07-06T10:10:01;20.80;90.40
15765;DHT22;7983;50.744;7.086;2022-07-06T10:12:28;20.80;90.50
15765;DHT22;7983;50.744;7.086;2022-07-06T10:14:56;20.80;90.00
15765;DHT22;7983;50.744;7.086;2022-07-06T10:17:23;20.90;89.80
15765;DHT22;7983;50.744;7.086;2022-07-06T10:19:52;20.90;90.20
15765;DHT22;7983;50.744;7.086;2022-07-06T10:22:19;20.90;90.40
15765;DHT22;7983;50.744;7.086;2022-07-06T10:24:47;20.90;90.00
15765;DHT22;7983;50.744;7.086;2022-07-06T10:27:14;20.90;89.60
15765;DHT22;7983;50.744;7.086;2022-07-06T10:29:42;20.90;89.90
15765;DHT22;7983;50.744;7.086;2022-07-06T10:32:10;20.90;90.00
15765;DHT22;7983;50.744;7.086;2022-07-06T10:34:39;20.90;89.80
15765;DHT22;7983;50.744;7.086;2022-07-06T10:37:25;20.90;89.30
15765;DHT22;7983;50.744;7.086;2022-07-06T10:39:51;21.00;89.00
15765;DHT22;7983;50.744;7.086;2022-07-06T10:45:04;21.20;86.80
15765;DHT22;7983;50.744;7.086;2022-07-06T10:47:32;21.30;87.50
15765;DHT22;7983;50.744;7.086;2022-07-06T10:50:03;21.40;87.50
15765;DHT22;7983;50.744;7.086;2022-07-06T10:52:58;21.40;87.90
15765;DHT22;7983;50.744;7.086;2022-07-06T10:55:31;21.60;85.70
15765;DHT22;7983;50.744;7.086;2022-07-06T10:57:57;21.60;86.60
15765;DHT22;7983;50.744;7.086;2022-07-06T11:00:22;21.70;86.20
15765;DHT22;7983;50.744;7.086;2022-07-06T11:02:50;21.80;85.20
15765;DHT22;7983;50.744;7.086;2022-07-06T11:05:41;21.80;85.80
15765;DHT22;7983;50.744;7.086;2022-07-06T11:08:10;21.90;83.40
15765;DHT22;7983;50.744;7.086;2022-07-06T11:10:49;22.00;86.00
15765;DHT22;7983;50.744;7.086;2022-07-06T11:13:30;22.20;84.20
15765;DHT22;7983;50.744;7.086;2022-07-06T11:16:06;22.20;80.70
15765;DHT22;7983;50.744;7.086;2022-07-06T11:18:42;22.40;83.00
15765;DHT22;7983;50.744;7.086;2022-07-06T11:21:22;22.40;81.80
15765;DHT22;7983;50.744;7.086;2022-07-06T11:23:49;22.50;82.70
15765;DHT22;7983;50.744;7.086;2022-07-06T11:26:16;22.60;83.50
15765;DHT22;7983;50.744;7.086;2022-07-06T11:28:46;22.70;82.90
15765;DHT22;7983;50.744;7.086;2022-07-06T11:31:14;22.70;82.00
15765;DHT22;7983;50.744;7.086;2022-07-06T11:33:40;22.90;82.60
15765;DHT22;7983;50.744;7.086;2022-07-06T11:38:40;23.10;78.80
15765;DHT22;7983;50.744;7.086;2022-07-06T11:41:06;23.20;80.60
15765;DHT22;7983;50.744;7.086;2022-07-06T11:43:32;23.30;80.70
15765;DHT22;7983;50.744;7.086;2022-07-06T11:45:58;23.40;80.40
15765;DHT22;7983;50.744;7.086;2022-07-06T11:48:24;23.60;80.70
15765;DHT22;7983;50.744;7.086;2022-07-06T11:51:03;23.80;81.60
15765;DHT22;7983;50.744;7.086;2022-07-06T11:53:29;23.90;78.10
15765;DHT22;7983;50.744;7.086;2022-07-06T11:56:02;24.00;79.10
15765;DHT22;7983;50.744;7.086;2022-07-06T11:58:29;24.00;76.50
15765;DHT22;7983;50.744;7.086;2022-07-06T12:01:10;24.00;78.00
15765;DHT22;7983;50.744;7.086;2022-07-06T12:03:36;24.10;77.50
15765;DHT22;7983;50.744;7.086;2022-07-06T12:06:13;24.10;77.30
15765;DHT22;7983;50.744;7.086;2022-07-06T12:08:58;24.10;75.70
15765;DHT22;7983;50.744;7.086;2022-07-06T12:11:31;24.00;74.90
15765;DHT22;7983;50.744;7.086;2022-07-06T12:14:12;24.00;75.10
15765;DHT22;7983;50.744;7.086;2022-07-06T12:16:41;23.90;73.50
15765;DHT22;7983;50.744;7.086;2022-07-06T12:19:09;23.80;74.20
15765;DHT22;7983;50.744;7.086;2022-07-06T12:21:46;23.70;74.00
15765;DHT22;7983;50.744;7.086;2022-07-06T12:24:22;23.70;74.50
15765;DHT22;7983;50.744;7.086;2022-07-06T12:26:49;23.80;75.30
15765;DHT22;7983;50.744;7.086;2022-07-06T12:29:15;24.00;76.80
15765;DHT22;7983;50.744;7.086;2022-07-06T12:31:47;24.20;75.90
15765;DHT22;7983;50.744;7.086;2022-07-06T12:34:26;24.30;74.10
15765;DHT22;7983;50.744;7.086;2022-07-06T12:37:05;24.30;72.90
15765;DHT22;7983;50.744;7.086;2022-07-06T12:39:41;24.20;72.90
15765;DHT22;7983;50.744;7.086;2022-07-06T12:42:07;24.10;71.80
15765;DHT22;7983;50.744;7.086;2022-07-06T12:44:45;23.90;72.20
15765;DHT22;7983;50.744;7.086;2022-07-06T12:47:12;23.70;71.00
15765;DHT22;7983;50.744;7.086;2022-07-06T12:49:40;23.60;71.90
15765;DHT22;7983;50.744;7.086;2022-07-06T12:52:10;23.50;72.30
15765;DHT22;7983;50.744;7.086;2022-07-06T12:57:24;23.50;71.40
15765;DHT22;7983;50.744;7.086;2022-07-06T13:07:24;23.30;70.80
15765;DHT22;7983;50.744;7.086;2022-07-06T13:09:50;23.30;71.40
15765;DHT22;7983;50.744;7.086;2022-07-06T13:12:18;23.30;71.60
15765;DHT22;7983;50.744;7.086;2022-07-06T13:14:47;23.30;71.80
15765;DHT22;7983;50.744;7.086;2022-07-06T13:17:13;23.30;72.40
15765;DHT22;7983;50.744;7.086;2022-07-06T13:19:44;23.40;73.10
15765;DHT22;7983;50.744;7.086;2022-07-06T13:22:10;23.60;72.60
15765;DHT22;7983;50.744;7.086;2022-07-06T13:24:35;23.70;70.80
15765;DHT22;7983;50.744;7.086;2022-07-06T13:27:01;23.70;70.00
15765;DHT22;7983;50.744;7.086;2022-07-06T13:29:27;23.60;68.80
15765;DHT22;7983;50.744;7.086;2022-07-06T13:31:53;23.60;69.80
15765;DHT22;7983;50.744;7.086;2022-07-06T13:34:23;23.60;70.10
15765;DHT22;7983;50.744;7.086;2022-07-06T13:36:50;23.60;69.40
15765;DHT22;7983;50.744;7.086;2022-07-06T13:39:16;23.60;68.60
15765;DHT22;7983;50.744;7.086;2022-07-06T13:41:42;23.60;69.20
15765;DHT22;7983;50.744;7.086;2022-07-06T13:44:10;23.60;69.70
15765;DHT22;7983;50.744;7.086;2022-07-06T13:46:38;23.60;69.50
15765;DHT22;7983;50.744;7.086;2022-07-06T13:49:05;23.70;69.60
15765;DHT22;7983;50.744;7.086;2022-07-06T13:51:31;23.80;70.40
15765;DHT22;7983;50.744;7.086;2022-07-06T13:53:58;23.90;70.60
15765;DHT22;7983;50.744;7.086;2022-07-06T13:56:27;24.00;70.40
15765;DHT22;7983;50.744;7.086;2022-07-06T13:58:54;24.10;70.00
15765;DHT22;7983;50.744;7.086;2022-07-06T14:01:20;24.20;70.20
15765;DHT22;7983;50.744;7.086;2022-07-06T14:03:46;24.30;70.30
15765;DHT22;7983;50.744;7.086;2022-07-06T14:06:14;24.50;70.50
15765;DHT22;7983;50.744;7.086;2022-07-06T14:08:42;24.70;70.60
15765;DHT22;7983;50.744;7.086;2022-07-06T14:11:09;24.80;69.10
15765;DHT22;7983;50.744;7.086;2022-07-06T14:13:38;24.90;68.40
15765;DHT22;7983;50.744;7.086;2022-07-06T14:16:05;25.00;66.40
15765;DHT22;7983;50.744;7.086;2022-07-06T14:18:31;25.10;66.60
15765;DHT22;7983;50.744;7.086;2022-07-06T14:20:56;25.10;65.80
15765;DHT22;7983;50.744;7.086;2022-07-06T14:23:25;25.10;66.50
15765;DHT22;7983;50.744;7.086;2022-07-06T14:25:54;25.10;66.30
15765;DHT22;7983;50.744;7.086;2022-07-06T14:28:20;25.20;66.60
15765;DHT22;7983;50.744;7.086;2022-07-06T14:30:46;25.20;67.10
15765;DHT22;7983;50.744;7.086;2022-07-06T14:33:13;25.30;66.10
15765;DHT22;7983;50.744;7.086;2022-07-06T14:35:46;25.30;65.60
15765;DHT22;7983;50.744;7.086;2022-07-06T14:38:15;25.20;64.80
15765;DHT22;7983;50.744;7.086;2022-07-06T14:40:41;25.20;65.30
15765;DHT22;7983;50.744;7.086;2022-07-06T14:43:08;25.30;65.40
15765;DHT22;7983;50.744;7.086;2022-07-06T14:45:37;25.30;65.40
15765;DHT22;7983;50.744;7.086;2022-07-06T14:48:07;25.40;65.70
15765;DHT22;7983;50.744;7.086;2022-07-06T14:50:33;25.40;65.60
15765;DHT22;7983;50.744;7.086;2022-07-06T14:53:00;25.60;65.90
15765;DHT22;7983;50.744;7.086;2022-07-06T14:55:28;25.70;65.70
15765;DHT22;7983;50.744;7.086;2022-07-06T14:57:53;25.80;66.30
15765;DHT22;7983;50.744;7.086;2022-07-06T15:00:23;26.00;66.70
15765;DHT22;7983;50.744;7.086;2022-07-06T15:02:48;26.20;65.40
15765;DHT22;7983;50.744;7.086;2022-07-06T15:05:14;26.40;65.20
15765;DHT22;7983;50.744;7.086;2022-07-06T15:07:40;26.60;63.40
15765;DHT22;7983;50.744;7.086;2022-07-06T15:10:07;26.60;63.40
15765;DHT22;7983;50.744;7.086;2022-07-06T15:12:36;26.60;62.50
15765;DHT22;7983;50.744;7.086;2022-07-06T15:15:04;26.60;61.40
15765;DHT22;7983;50.744;7.086;2022-07-06T15:17:30;26.60;61.30
15765;DHT22;7983;50.744;7.086;2022-07-06T15:19:57;26.50;61.60
15765;DHT22;7983;50.744;7.086;2022-07-06T15:22:23;26.50;61.60
15765;DHT22;7983;50.744;7.086;2022-07-06T15:24:51;26.50;61.10
15765;DHT22;7983;50.744;7.086;2022-07-06T15:27:16;26.50;61.10
15765;DHT22;7983;50.744;7.086;2022-07-06T15:29:42;26.50;59.90
15765;DHT22;7983;50.744;7.086;2022-07-06T15:32:08;26.50;59.60
15765;DHT22;7983;50.744;7.086;2022-07-06T15:34:34;26.40;59.40
15765;DHT22;7983;50.744;7.086;2022-07-06T15:36:59;26.30;59.10
15765;DHT22;7983;50.744;7.086;2022-07-06T15:39:25;26.20;59.40
15765;DHT22;7983;50.744;7.086;2022-07-06T15:41:51;26.20;59.20
15765;DHT22;7983;50.744;7.086;2022-07-06T15:44:16;26.20;59.70
15765;DHT22;7983;50.744;7.086;2022-07-06T15:46:42;26.30;59.90
15765;DHT22;7983;50.744;7.086;2022-07-06T15:49:12;26.40;60.30
15765;DHT22;7983;50.744;7.086;2022-07-06T15:51:37;26.50;59.30
15765;DHT22;7983;50.744;7.086;2022-07-06T15:54:06;26.50;58.90
15765;DHT22;7983;50.744;7.086;2022-07-06T15:56:31;26.50;58.90
15765;DHT22;7983;50.744;7.086;2022-07-06T15:58:59;26.50;58.10
15765;DHT22;7983;50.744;7.086;2022-07-06T16:01:25;26.50;58.50
15765;DHT22;7983;50.744;7.086;2022-07-06T16:03:50;26.60;58.00
15765;DHT22;7983;50.744;7.086;2022-07-06T16:06:18;26.60;58.40
15765;DHT22;7983;50.744;7.086;2022-07-06T16:08:44;26.60;58.40